Time;durP1;ratioP1;P1;durP2;ratioP2;P2;SDS_P1;SDS_P2;PMS_P1;PMS_P2;Temp;Humidity;BMP_temperature;BMP_pressure;BME280_temperature;BME280_humidity;BME280_pressure;Samples;Min_cycle;Max_cycle;Signal;HPM_P1;HPM_P2
2023/06/12 01:17:00;;;;;;;;;;;;;;;;;;;;;
2023/06/12 02:20:25;;;;;;;2.42;1.60;;;16.30;99.90;;;;;;5124291;24;20052;-96
2023/06/12 02:26:34;;;;;;;;;;;;;;;;;;;;;
2023/06/12 02:29:29;;;;;;;3.65;1.90;;;16.10;99.90;;;;;;4755442;30;20054;-96
2023/06/12 02:32:15;;;;;;;;;;;;;;;;;;;;;
2023/06/12 02:35:00;;;;;;;4.88;2.00;;;15.90;99.90;;;;;;4769929;30;20080;-96
2023/06/12 02:38:43;;;;;;;3.63;1.77;;;16.00;99.90;;;;;;4784873;30;20053;-96
2023/06/12 02:41:48;;;;;;;2.85;2.00;;;15.90;99.90;;;;;;4785860;30;20115;-96
2023/06/12 02:44:57;;;;;;;5.45;2.20;;;15.90;99.90;;;;;;4775351;30;20085;-96
2023/06/12 02:47:30;;;;;;;3.67;1.80;;;15.90;99.90;;;;;;4769738;29;20079;-96
2023/06/12 02:50:28;;;;;;;;;;;;;;;;;;;;;
2023/06/12 02:53:25;;;;;;;7.40;2.20;;;15.80;99.90;;;;;;4776653;30;20094;-96
2023/06/12 02:56:20;;;;;;;2.45;1.80;;;15.70;99.90;;;;;;4797239;30;20064;-96
2023/06/12 02:59:09;;;;;;;6.07;2.10;;;15.70;99.90;;;;;;4758908;30;20078;-96
2023/06/12 03:02:15;;;;;;;4.45;2.20;;;15.70;99.90;;;;;;4769408;29;20036;-96
2023/06/12 03:04:42;;;;;;;3.58;1.88;;;15.70;99.90;;;;;;4781519;29;20111;-96
2023/06/12 03:07:28;;;;;;;4.60;2.20;;;15.60;99.90;;;;;;4779750;30;20098;-96
2023/06/12 03:10:37;;;;;;;3.85;2.10;;;15.70;99.90;;;;;;4756893;30;20325;-96
2023/06/12 03:14:26;;;;;;;3.72;2.15;;;15.50;99.90;;;;;;4764095;29;20050;-96
2023/06/12 03:17:01;;;;;;;3.20;2.00;;;15.30;99.90;;;;;;4788795;29;20047;-96
2023/06/12 03:19:56;;;;;;;3.95;2.03;;;15.70;99.90;;;;;;4771040;30;20077;-96
2023/06/12 03:25:35;;;;;;;3.65;1.70;;;15.60;99.90;;;;;;5010084;24;20064;-96
2023/06/12 03:28:47;;;;;;;5.72;2.53;;;15.70;99.90;;;;;;4782658;30;20076;-96
2023/06/12 03:31:54;;;;;;;4.68;2.30;;;15.70;99.90;;;;;;4761202;30;20063;-96
2023/06/12 03:34:56;;;;;;;4.63;1.95;;;15.70;99.90;;;;;;4772644;30;20040;-96
2023/06/12 03:37:45;;;;;;;5.32;2.38;;;15.70;99.90;;;;;;4758933;30;20126;-96
2023/06/12 03:40:24;;;;;;;3.88;2.40;;;15.70;99.90;;;;;;4758147;29;20048;-96
2023/06/12 03:43:02;;;;;;;5.10;2.40;;;15.70;99.90;;;;;;4783428;30;20060;-96
2023/06/12 03:46:04;;;;;;;3.53;2.20;;;15.60;99.90;;;;;;4786198;30;20056;-96
2023/06/12 03:49:14;;;;;;;4.22;2.20;;;15.80;99.90;;;;;;4769637;30;20056;-96
2023/06/12 03:52:30;;;;;;;3.90;2.88;;;15.80;99.90;;;;;;4769720;30;20055;-96
2023/06/12 03:55:05;;;;;;;3.58;2.30;;;15.60;99.90;;;;;;4757082;30;20072;-96
2023/06/12 03:57:46;;;;;;;4.70;2.00;;;15.50;99.90;;;;;;4765284;30;20086;-96
2023/06/12 04:00:48;;;;;;;4.60;1.80;;;15.40;99.90;;;;;;4792076;29;20069;-96
2023/06/12 04:03:18;;;;;;;3.95;2.08;;;15.50;99.90;;;;;;4774798;30;20035;-95
2023/06/12 04:06:11;;;;;;;3.35;2.03;;;15.50;99.90;;;;;;4787248;30;20097;-96
2023/06/12 04:08:53;;;;;;;3.30;2.13;;;15.60;99.90;;;;;;4786981;30;20047;-96
2023/06/12 04:12:00;;;;;;;4.25;2.03;;;15.50;99.90;;;;;;4762190;30;20071;-96
2023/06/12 04:55:28;;;;;;;5.25;2.60;;;16.10;99.90;;;;;;5508069;24;20184;31
2023/06/12 05:01:00;;;;;;;4.00;2.97;;;16.30;99.90;;;;;;4869903;24;20175;-96
2023/06/12 05:03:35;;;;;;;;;;;16.40;99.90;;;;;;4789506;29;20089;-96
2023/06/12 05:06:01;;;;;;;4.32;2.97;;;16.40;99.90;;;;;;4795872;24;19933;-40
2023/06/12 05:08:27;;;;;;;6.35;2.67;;;16.50;99.90;;;;;;4784811;29;20419;-40
2023/06/12 05:10:53;;;;;;;5.60;3.00;;;16.60;99.90;;;;;;4783737;29;20099;-40
2023/06/12 05:13:19;;;;;;;5.85;2.88;;;16.60;99.90;;;;;;4766654;30;20039;-40
2023/06/12 05:15:44;;;;;;;7.90;2.90;;;16.70;99.90;;;;;;4781376;29;20047;-41
2023/06/12 05:18:10;;;;;;;6.72;2.83;;;16.80;99.90;;;;;;4766906;30;20551;-40
2023/06/12 05:20:36;;;;;;;7.05;3.10;;;16.80;99.90;;;;;;4784062;29;20095;-41
2023/06/12 05:23:02;;;;;;;4.97;2.58;;;16.90;99.90;;;;;;4780831;29;20063;-41
2023/06/12 05:25:28;;;;;;;5.95;2.60;;;17.00;99.90;;;;;;4786634;29;20058;-41
2023/06/12 05:27:54;;;;;;;6.97;3.08;;;17.10;99.90;;;;;;4782752;29;20068;-40
2023/06/12 05:30:19;;;;;;;8.45;3.53;;;17.20;99.90;;;;;;4752975;30;20075;-41
2023/06/12 05:32:45;;;;;;;4.72;2.75;;;17.30;99.90;;;;;;4778102;29;20040;-41
2023/06/12 05:35:11;;;;;;;6.30;3.50;;;17.40;99.90;;;;;;4770375;29;20052;-40
2023/06/12 05:37:36;;;;;;;6.20;3.30;;;17.50;99.90;;;;;;4790542;29;20064;-41
2023/06/12 05:40:05;;;;;;;13.85;4.40;;;17.60;99.90;;;;;;4763714;30;20047;-40
2023/06/12 05:42:31;;;;;;;7.30;2.90;;;17.70;99.90;;;;;;4777854;29;20108;-40
2023/06/12 05:44:57;;;;;;;6.20;3.05;;;17.70;99.90;;;;;;4767779;29;20043;-41
2023/06/12 05:47:23;;;;;;;6.10;3.08;;;17.80;99.90;;;;;;4780601;29;20047;-40
2023/06/12 05:49:48;;;;;;;5.45;2.50;;;18.00;99.90;;;;;;4784346;29;20039;-40
2023/06/12 05:52:18;;;;;;;5.13;2.92;;;18.40;99.90;;;;;;4780789;29;20407;-40
2023/06/12 05:54:43;;;;;;;4.35;2.83;;;19.20;99.90;;;;;;4786280;29;20392;-41
2023/06/12 05:57:11;;;;;;;6.53;3.35;;;20.30;99.90;;;;;;4764429;30;20050;-41
2023/06/12 05:59:37;;;;;;;4.15;2.75;;;21.20;99.90;;;;;;4760000;30;20062;-40
2023/06/12 06:02:03;;;;;;;5.40;2.80;;;21.90;99.90;;;;;;4774327;29;20039;-41
2023/06/12 06:04:29;;;;;;;5.00;3.05;;;22.10;99.90;;;;;;4782714;29;20051;-41
2023/06/12 06:07:07;;;;;;;4.22;2.75;;;21.60;99.90;;;;;;4786239;29;20051;-41
2023/06/12 06:09:33;;;;;;;5.93;2.80;;;21.30;99.90;;;;;;4767747;29;20062;-40
2023/06/12 06:11:59;;;;;;;4.10;2.40;;;21.30;99.90;;;;;;4769551;29;20051;-41
2023/06/12 06:14:25;;;;;;;5.75;2.88;;;21.40;99.90;;;;;;4766938;30;20166;-41
2023/06/12 06:16:50;;;;;;;4.07;2.47;;;21.50;99.90;;;;;;4777706;29;20035;-41
2023/06/12 06:19:16;;;;;;;4.68;2.50;;;21.80;99.90;;;;;;4783504;29;20138;-41
2023/06/12 06:21:42;;;;;;;4.07;2.20;;;22.20;99.90;;;;;;4780744;29;20047;-41
2023/06/12 06:24:08;;;;;;;4.30;2.38;;;22.40;99.90;;;;;;4761274;30;20066;-41
2023/06/12 06:26:36;;;;;;;5.43;2.58;;;22.20;99.90;;;;;;4783496;29;20035;-42
2023/06/12 06:29:02;;;;;;;7.38;3.00;;;22.20;99.90;;;;;;4766291;29;20499;-41
2023/06/12 06:31:29;;;;;;;4.75;3.00;;;21.90;99.90;;;;;;4779645;29;20100;-41
2023/06/12 06:33:55;;;;;;;3.53;2.22;;;21.70;99.90;;;;;;4767762;30;20060;-41
2023/06/12 06:36:23;;;;;;;6.35;2.28;;;21.50;99.90;;;;;;4781170;29;20055;-41
2023/06/12 06:38:48;;;;;;;4.10;2.40;;;21.20;99.90;;;;;;4780062;29;20055;-41
2023/06/12 06:41:14;;;;;;;3.90;2.08;;;21.10;99.90;;;;;;4782917;29;20386;-41
2023/06/12 06:43:44;;;;;;;5.20;2.50;;;21.10;99.90;;;;;;4766155;30;20050;-41
2023/06/12 06:46:09;;;;;;;6.57;2.67;;;21.20;99.90;;;;;;4766072;29;20343;-40
2023/06/12 06:48:35;;;;;;;6.85;2.40;;;21.30;99.90;;;;;;4782509;29;20042;-41
2023/06/12 06:51:02;;;;;;;5.32;2.97;;;21.40;99.90;;;;;;4769245;29;20513;-41
2023/06/12 06:53:31;;;;;;;5.03;3.10;;;21.90;99.90;;;;;;4790550;29;20050;-41
2023/06/12 06:55:57;;;;;;;6.63;3.67;;;23.00;99.90;;;;;;4796222;29;20078;-41
2023/06/12 06:58:22;;;;;;;6.78;3.40;;;24.40;99.90;;;;;;4770594;30;20489;-41
2023/06/12 07:00:49;;;;;;;6.57;3.27;;;25.50;99.90;;;;;;4778310;29;20410;-41
2023/06/12 07:03:15;;;;;;;6.97;3.17;;;26.40;99.90;;;;;;4765252;29;20539;-42
2023/06/12 07:05:41;;;;;;;3.70;2.65;;;27.20;99.90;;;;;;4750910;30;20052;-42
2023/06/12 07:08:09;;;;;;;4.63;2.27;;;27.90;99.90;;;;;;4765622;30;20095;-42
2023/06/12 07:10:42;;;;;;;7.05;2.50;;;28.00;96.60;;;;;;4778800;29;20427;-42
2023/06/12 07:13:09;;;;;;;4.82;2.20;;;28.20;92.30;;;;;;4783477;29;20539;-42
2023/06/12 07:15:34;;;;;;;;;;;28.50;92.50;;;;;;4765180;30;20051;-41
2023/06/12 07:18:04;;;;;;;5.38;2.25;;;28.40;84.00;;;;;;4783436;29;19930;-42
2023/06/12 07:20:32;;;;;;;5.15;2.58;;;28.80;90.40;;;;;;4765303;30;20062;-41
2023/06/12 07:22:59;;;;;;;5.15;2.40;;;29.40;87.80;;;;;;4791958;24;20159;-95
2023/06/12 07:25:24;;;;;;;5.40;2.30;;;29.90;85.00;;;;;;4758552;30;20088;-96
2023/06/12 07:27:52;;;;;;;4.83;2.57;;;29.80;81.90;;;;;;4741050;30;20379;-96
2023/06/12 07:30:18;;;;;;;4.30;2.30;;;29.70;78.10;;;;;;4748789;30;20039;-96
2023/06/12 07:32:44;;;;;;;5.07;2.40;;;29.60;78.60;;;;;;4761401;30;20532;-96
2023/06/12 07:35:10;;;;;;;4.15;2.28;;;30.00;78.60;;;;;;4746667;30;20054;-96
2023/06/12 07:37:38;;;;;;;6.65;2.55;;;30.40;77.50;;;;;;4759032;30;20051;-96
2023/06/12 07:40:10;;;;;;;6.85;2.33;;;30.70;76.20;;;;;;4766501;30;20054;-96
2023/06/12 07:42:36;;;;;;;6.53;2.38;;;30.90;75.00;;;;;;4723167;30;20059;-96
2023/06/12 07:45:03;;;;;;;4.97;2.30;;;31.20;74.10;;;;;;4768067;30;20154;-96
2023/06/12 07:47:31;;;;;;;3.75;2.03;;;31.30;73.10;;;;;;4720779;30;20046;-96
2023/06/12 07:49:58;;;;;;;5.68;2.17;;;31.30;72.70;;;;;;4759365;30;20040;-95
2023/06/12 07:52:24;;;;;;;3.03;1.90;;;31.10;72.30;;;;;;4747615;30;20036;-96
2023/06/12 07:54:50;;;;;;;3.40;2.15;;;31.10;71.30;;;;;;4739036;30;20054;-95
2023/06/12 07:57:16;;;;;;;3.70;2.28;;;31.30;71.30;;;;;;4734520;30;20101;-95
2023/06/12 07:59:44;;;;;;;3.80;2.30;;;31.40;70.40;;;;;;4774479;30;20047;-96
2023/06/12 08:02:10;;;;;;;6.85;2.30;;;31.60;70.20;;;;;;4754342;30;20059;-96
2023/06/12 08:04:40;;;;;;;;;;;31.50;69.40;;;;;;4752532;30;20085;-96
2023/06/12 08:07:11;;;;;;;4.25;2.20;;;31.30;67.70;;;;;;4729462;30;19922;-96
2023/06/12 08:09:43;;;;;;;6.43;2.17;;;31.20;69.90;;;;;;4759483;30;20039;-95
2023/06/12 08:12:12;;;;;;;2.95;2.08;;;30.90;69.10;;;;;;4772368;30;20104;-96
2023/06/12 08:14:53;;;;;;;2.92;2.40;;;30.50;69.70;;;;;;4755134;30;20043;-96
2023/06/12 08:17:20;;;;;;;4.70;2.50;;;30.20;69.10;;;;;;4729107;30;20062;-96
2023/06/12 08:19:48;;;;;;;3.17;2.38;;;29.70;70.00;;;;;;4758402;30;20407;-96
2023/06/12 08:22:15;;;;;;;3.25;2.25;;;29.30;71.00;;;;;;4754441;30;20067;-95
2023/06/12 08:24:43;;;;;;;6.38;2.33;;;28.80;70.70;;;;;;4758091;30;20056;-95
2023/06/12 08:27:12;;;;;;;6.22;2.63;;;28.60;71.00;;;;;;4753411;30;20031;-96
2023/06/12 08:29:39;;;;;;;6.70;2.40;;;28.30;71.80;;;;;;4757093;30;20055;-96
2023/06/12 08:32:06;;;;;;;5.75;2.63;;;28.20;72.40;;;;;;4754847;30;20042;-96
2023/06/12 08:34:32;;;;;;;8.07;2.40;;;28.20;71.90;;;;;;4751739;30;20526;-96
2023/06/12 08:36:58;;;;;;;3.10;2.17;;;28.20;71.50;;;;;;4755553;30;20048;-95
2023/06/12 08:39:24;;;;;;;6.90;2.22;;;28.20;71.30;;;;;;4756130;30;20131;-96
2023/06/12 08:42:21;;;;;;;5.60;2.35;;;28.20;71.10;;;;;;4756583;30;20122;-95
2023/06/12 08:44:47;;;;;;;4.85;2.28;;;28.20;71.80;;;;;;4757485;30;20051;-96
2023/06/12 08:47:14;;;;;;;5.13;2.80;;;28.00;71.20;;;;;;4745997;30;20044;-94
2023/06/12 08:49:41;;;;;;;;;;;27.90;71.60;;;;;;4765263;30;20055;-96
2023/06/12 08:52:07;;;;;;;3.90;2.50;;;27.80;72.80;;;;;;4747999;30;19960;-96
2023/06/12 08:54:45;;;;;;;2.70;2.42;;;27.70;72.30;;;;;;4744943;30;20043;-96
2023/06/12 08:57:14;;;;;;;4.38;2.55;;;27.80;72.80;;;;;;4742145;30;20062;-95
2023/06/12 08:59:42;;;;;;;5.13;2.20;;;27.90;73.00;;;;;;4752066;30;20118;-96
2023/06/12 09:02:22;;;;;;;3.60;2.45;;;28.00;73.60;;;;;;4754062;30;20538;-96
2023/06/12 09:05:02;;;;;;;4.32;2.60;;;28.10;73.60;;;;;;4752332;30;20059;-95
2023/06/12 09:07:43;;;;;;;5.05;2.30;;;28.30;72.20;;;;;;4755959;30;20064;-96
2023/06/12 09:10:10;;;;;;;4.40;2.40;;;28.40;71.00;;;;;;4757087;30;20048;-96
2023/06/12 09:12:35;;;;;;;4.57;2.65;;;28.40;71.90;;;;;;4746373;30;20770;-95
2023/06/12 09:15:02;;;;;;;5.03;2.40;;;28.40;71.50;;;;;;4755035;30;20040;-96
2023/06/12 09:17:37;;;;;;;3.58;2.42;;;28.40;71.60;;;;;;4774342;30;20047;-95
2023/06/12 09:20:06;;;;;;;7.00;2.92;;;28.50;72.30;;;;;;4754837;30;20457;-96
2023/06/12 09:22:32;;;;;;;9.88;3.58;;;28.70;72.10;;;;;;4772720;29;20064;-94
2023/06/12 09:24:58;;;;;;;3.37;2.50;;;28.80;71.90;;;;;;4734966;30;20401;-95
2023/06/12 09:27:24;;;;;;;5.68;2.60;;;28.90;71.80;;;;;;4754707;30;20477;-95
2023/06/12 09:29:59;;;;;;;4.75;2.45;;;28.50;72.10;;;;;;4737533;30;20102;-95
2023/06/12 09:32:29;;;;;;;5.47;2.60;;;28.20;70.50;;;;;;4740957;30;20056;-95
2023/06/12 09:34:55;;;;;;;4.85;2.42;;;28.20;71.50;;;;;;4757067;30;20058;-96
2023/06/12 09:37:24;;;;;;;3.28;2.47;;;28.30;71.70;;;;;;4755025;30;20043;-96
2023/06/12 09:40:14;;;;;;;2.70;2.20;;;28.20;71.60;;;;;;4741171;30;20063;-95
2023/06/12 09:42:41;;;;;;;5.13;2.60;;;28.00;71.40;;;;;;4752453;30;20051;-96
2023/06/12 09:45:35;;;;;;;3.88;2.75;;;27.90;72.50;;;;;;4753091;30;20043;-95
2023/06/12 09:48:01;;;;;;;3.30;2.70;;;27.80;72.80;;;;;;4750225;30;20055;-95
2023/06/12 09:50:27;;;;;;;4.93;3.00;;;27.80;73.30;;;;;;4760406;30;20047;-95
2023/06/12 09:52:56;;;;;;;5.20;2.47;;;27.80;73.10;;;;;;4756016;30;20054;-95
2023/06/12 09:55:26;;;;;;;4.30;2.17;;;27.90;73.60;;;;;;4750258;30;20141;-96
2023/06/12 09:57:52;;;;;;;5.85;2.40;;;27.90;71.90;;;;;;4750926;30;20103;-96
2023/06/12 10:00:21;;;;;;;3.92;2.70;;;27.70;71.30;;;;;;4750864;30;20048;-95
2023/06/12 10:03:00;;;;;;;6.05;2.53;;;27.70;71.10;;;;;;4761758;30;20081;-95
2023/06/12 10:05:40;;;;;;;6.10;2.60;;;27.60;72.00;;;;;;4751387;30;20047;-94
2023/06/12 10:08:07;;;;;;;4.00;2.50;;;27.70;72.30;;;;;;4767798;29;21113;-92
2023/06/12 10:10:51;;;;;;;7.07;2.85;;;27.80;72.20;;;;;;4742002;30;20043;-92
2023/06/12 10:13:44;;;;;;;4.82;2.47;;;27.90;72.20;;;;;;4753916;30;20098;-95
2023/06/12 10:17:22;;;;;;;4.78;2.50;;;27.80;73.00;;;;;;4721345;30;20085;-95
2023/06/12 10:23:43;;;;;;;4.07;2.67;;;28.10;71.50;;;;;;4595104;30;20145;-96
2023/06/12 10:26:14;;;;;;;3.03;2.58;;;28.30;71.60;;;;;;4679851;30;20295;-95
2023/06/12 10:29:20;;;;;;;;;;;;;;;;;;;;;
2023/06/12 10:32:45;;;;;;;3.95;3.20;;;28.50;71.60;;;;;;4679827;30;20150;-95
2023/06/12 10:35:46;;;;;;;3.60;2.40;;;28.50;70.20;;;;;;4678071;30;20041;-95
2023/06/12 10:39:22;;;;;;;;;;;;;;;;;;;;;
2023/06/12 10:42:01;;;;;;;6.25;2.85;;;28.80;68.70;;;;;;4698647;30;20371;-96
2023/06/12 10:44:41;;;;;;;3.03;2.45;;;28.80;68.40;;;;;;4700691;30;20056;-95
2023/06/12 10:47:28;;;;;;;2.90;2.13;;;28.70;68.30;;;;;;4740194;30;20075;-94
2023/06/12 10:49:58;;;;;;;11.43;2.73;;;28.90;68.70;;;;;;4773905;30;20043;-95
2023/06/12 10:52:26;;;;;;;7.70;2.50;;;29.00;68.80;;;;;;4750087;30;20051;-94
2023/06/12 10:55:30;;;;;;;4.63;2.35;;;29.20;70.00;;;;;;4757881;30;20054;-95
2023/06/12 10:57:59;;;;;;;4.00;2.65;;;29.40;68.80;;;;;;4768771;30;20048;-95
2023/06/12 11:00:31;;;;;;;3.22;2.42;;;29.50;68.40;;;;;;4753790;30;20053;-94
2023/06/12 11:03:00;;;;;;;7.13;2.33;;;29.40;65.70;;;;;;4741851;30;20063;-96
2023/06/12 11:05:30;;;;;;;4.78;2.50;;;29.40;66.90;;;;;;4762666;30;20496;-96
2023/06/12 11:08:25;;;;;;;5.70;2.25;;;29.50;67.30;;;;;;4753950;30;20180;-96
2023/06/12 11:10:55;;;;;;;5.68;2.45;;;29.40;66.50;;;;;;4748177;30;20062;-96
2023/06/12 11:13:26;;;;;;;3.60;2.60;;;29.50;65.90;;;;;;4751619;30;20052;-95
2023/06/12 11:15:53;;;;;;;2.90;2.60;;;29.40;63.40;;;;;;4746242;30;20090;-95
2023/06/12 11:18:25;;;;;;;3.97;2.60;;;29.50;64.70;;;;;;4751879;30;20127;-95
2023/06/12 11:20:53;;;;;;;3.90;2.60;;;29.60;65.10;;;;;;4750379;30;20513;-96
2023/06/12 11:23:23;;;;;;;3.08;2.50;;;29.70;64.90;;;;;;4753403;30;20060;-95
2023/06/12 11:25:49;;;;;;;2.63;2.25;;;29.80;65.20;;;;;;4753200;30;20523;-96
2023/06/12 11:28:15;;;;;;;4.55;2.33;;;29.90;65.50;;;;;;4753816;30;20052;-96
2023/06/12 11:30:48;;;;;;;4.97;2.50;;;29.90;64.60;;;;;;4765193;30;20492;-95
2023/06/12 11:33:16;;;;;;;4.03;2.25;;;30.10;64.00;;;;;;4754229;30;20049;-95
2023/06/12 11:35:43;;;;;;;2.55;2.10;;;30.10;64.20;;;;;;4753196;30;20052;-95
2023/06/12 11:38:13;;;;;;;3.63;2.22;;;29.90;64.00;;;;;;4768681;30;20416;-95
2023/06/12 11:40:40;;;;;;;3.00;2.33;;;30.00;63.60;;;;;;4747228;30;20052;-95
2023/06/12 11:43:06;;;;;;;3.55;2.40;;;30.10;63.70;;;;;;4755125;30;20046;-96
2023/06/12 11:45:41;;;;;;;3.20;2.50;;;30.10;63.50;;;;;;4722726;30;20063;-95
2023/06/12 11:48:14;;;;;;;2.78;2.35;;;30.30;63.90;;;;;;4760157;30;20495;-95
2023/06/12 11:50:51;;;;;;;3.85;2.80;;;30.40;62.40;;;;;;4755226;30;20039;-95
2023/06/12 11:53:20;;;;;;;4.43;2.40;;;30.10;61.20;;;;;;4779374;30;20655;-95
2023/06/12 11:55:56;;;;;;;5.68;2.65;;;30.00;62.20;;;;;;4755952;30;20047;-94
2023/06/12 11:58:41;;;;;;;4.38;2.45;;;30.10;63.40;;;;;;4752881;30;20127;-95
2023/06/12 12:01:27;;;;;;;3.40;2.50;;;30.00;61.80;;;;;;4765940;30;20039;-95
2023/06/12 12:04:00;;;;;;;3.25;2.65;;;30.00;63.10;;;;;;4717060;30;20091;-96
2023/06/12 12:06:31;;;;;;;3.42;2.67;;;29.90;61.30;;;;;;4759294;30;20043;-96
2023/06/12 12:09:00;;;;;;;3.60;2.42;;;29.60;61.30;;;;;;4754667;30;20382;-95
2023/06/12 12:11:34;;;;;;;2.65;2.30;;;29.40;61.40;;;;;;4761795;30;20077;-96
2023/06/12 12:14:03;;;;;;;3.58;2.80;;;29.40;62.00;;;;;;4755197;30;20047;-94
2023/06/12 12:16:36;;;;;;;4.10;2.45;;;29.40;60.80;;;;;;4726882;30;20577;-96
2023/06/12 12:19:15;;;;;;;5.93;2.50;;;29.40;61.50;;;;;;4776019;30;20054;-91
2023/06/12 12:21:44;;;;;;;3.97;2.58;;;29.40;61.10;;;;;;4754868;30;20119;-88
2023/06/12 12:24:10;;;;;;;3.88;2.50;;;29.40;60.50;;;;;;4751114;30;20134;-86
2023/06/12 12:26:48;;;;;;;4.57;2.50;;;29.30;59.90;;;;;;4750104;30;20160;-86
2023/06/12 12:29:14;;;;;;;3.00;2.47;;;29.30;59.80;;;;;;4744559;30;20071;-86
2023/06/12 12:31:40;;;;;;;4.18;2.78;;;29.20;59.90;;;;;;4747943;30;20055;-85
2023/06/12 12:34:08;;;;;;;4.97;3.43;;;29.00;59.10;;;;;;4732682;30;20407;-86
2023/06/12 12:36:35;;;;;;;4.22;2.80;;;28.80;60.00;;;;;;4752772;30;20481;-86
2023/06/12 12:39:00;;;;;;;4.00;2.53;;;28.80;60.80;;;;;;4752658;30;20043;-86
2023/06/12 12:41:26;;;;;;;3.87;2.67;;;28.90;60.30;;;;;;4750736;30;20039;-85
2023/06/12 12:43:52;;;;;;;3.05;2.40;;;29.00;60.50;;;;;;4737273;30;20044;-85
2023/06/12 12:46:18;;;;;;;6.35;2.97;;;29.10;60.60;;;;;;4728531;30;20423;-85
2023/06/12 12:48:45;;;;;;;3.80;2.97;;;29.20;60.40;;;;;;4742220;30;20051;-86
2023/06/12 12:51:11;;;;;;;4.65;2.67;;;29.30;60.70;;;;;;4719463;30;20139;-87
2023/06/12 12:53:37;;;;;;;4.57;2.63;;;29.20;60.40;;;;;;4755444;30;20181;-85
2023/06/12 12:56:03;;;;;;;5.63;2.88;;;29.00;60.30;;;;;;4749679;30;20127;-86
2023/06/12 12:58:29;;;;;;;4.65;2.40;;;28.90;61.60;;;;;;4728638;30;20048;-86
2023/06/12 13:00:55;;;;;;;3.60;2.80;;;28.80;61.60;;;;;;4749118;30;20048;-88
2023/06/12 13:03:21;;;;;;;3.72;2.80;;;28.80;62.30;;;;;;4744262;30;20855;-88
2023/06/12 13:05:47;;;;;;;5.18;3.05;;;28.70;61.60;;;;;;4725708;30;20047;-86
2023/06/12 13:08:13;;;;;;;3.47;3.00;;;28.60;62.30;;;;;;4737444;30;20052;-87
2023/06/12 13:10:39;;;;;;;3.70;3.08;;;28.50;62.60;;;;;;4734352;30;20044;-86
2023/06/12 13:13:05;;;;;;;5.20;3.00;;;28.50;62.50;;;;;;4726068;30;20134;-86
2023/06/12 13:15:30;;;;;;;5.30;2.93;;;28.60;62.80;;;;;;4736836;30;20123;-86
2023/06/12 13:17:57;;;;;;;6.00;3.10;;;28.40;62.60;;;;;;4759470;30;20059;-86
2023/06/12 13:20:23;;;;;;;4.88;3.45;;;28.30;62.30;;;;;;4776602;30;20047;-85
2023/06/12 13:22:51;;;;;;;3.97;3.00;;;28.30;62.70;;;;;;4765620;29;20070;-86
2023/06/12 13:25:17;;;;;;;4.72;3.00;;;28.30;62.10;;;;;;4761132;29;20494;-88
2023/06/12 13:27:43;;;;;;;4.80;2.83;;;28.40;62.10;;;;;;4757321;29;20047;-86
2023/06/12 13:30:09;;;;;;;5.35;2.88;;;28.40;62.20;;;;;;4778574;29;20038;-87
2023/06/12 13:32:36;;;;;;;6.05;3.38;;;28.40;62.10;;;;;;4750013;29;20091;-87
2023/06/12 13:35:02;;;;;;;6.57;3.38;;;28.40;62.80;;;;;;4752116;30;20051;-86
2023/06/12 13:37:28;;;;;;;8.50;2.75;;;28.40;62.30;;;;;;4724277;30;20048;-88
2023/06/12 13:39:53;;;;;;;5.50;2.90;;;28.50;62.50;;;;;;4730853;30;20044;-87
2023/06/12 13:42:19;;;;;;;5.47;3.13;;;28.50;63.00;;;;;;4739535;30;20051;-87
2023/06/12 13:44:45;;;;;;;5.00;2.97;;;28.40;62.90;;;;;;4720413;30;20551;-89
2023/06/12 13:47:10;;;;;;;5.83;2.93;;;28.50;62.50;;;;;;4754344;30;20044;-87
2023/06/12 13:49:36;;;;;;;3.97;3.00;;;28.50;61.70;;;;;;4750854;30;20059;-87
2023/06/12 13:52:02;;;;;;;2.60;2.40;;;28.50;61.30;;;;;;4722304;30;20050;-87
2023/06/12 13:54:28;;;;;;;4.88;3.13;;;28.50;61.10;;;;;;4744884;30;20166;-87
2023/06/12 13:56:53;;;;;;;5.67;3.07;;;28.50;61.00;;;;;;4734977;30;20047;-86
2023/06/12 13:59:20;;;;;;;4.97;3.13;;;28.50;61.10;;;;;;4748366;30;20714;-86
2023/06/12 14:01:49;;;;;;;;;;;28.50;61.80;;;;;;4750634;30;20036;-86
2023/06/12 14:04:17;;;;;;;12.82;2.95;;;28.40;62.00;;;;;;4739859;30;19940;-86
2023/06/12 14:06:43;;;;;;;3.60;3.10;;;28.50;61.90;;;;;;4736679;30;20092;-86
2023/06/12 14:09:09;;;;;;;6.77;3.27;;;28.50;60.50;;;;;;4738316;30;20047;-85
2023/06/12 14:11:35;;;;;;;4.60;3.17;;;28.40;60.50;;;;;;4736117;30;20492;-86
2023/06/12 14:14:01;;;;;;;3.97;3.10;;;28.40;60.20;;;;;;4757013;30;20047;-86
2023/06/12 14:16:27;;;;;;;4.00;3.30;;;28.20;60.20;;;;;;4724284;30;20047;-84
2023/06/12 14:18:53;;;;;;;3.37;3.07;;;28.10;59.70;;;;;;4750580;30;20660;-85
2023/06/12 14:21:20;;;;;;;4.05;3.20;;;28.10;60.80;;;;;;4721940;30;20047;-86
2023/06/12 14:23:47;;;;;;;3.47;3.17;;;28.10;59.90;;;;;;4748612;29;20059;-86
2023/06/12 14:26:13;;;;;;;4.30;3.00;;;28.00;59.00;;;;;;4750130;30;20144;-85
2023/06/12 14:28:40;;;;;;;4.35;3.33;;;28.10;59.00;;;;;;4735432;30;20527;-86
2023/06/12 14:31:05;;;;;;;;;;;28.10;59.00;;;;;;4742862;30;20047;-87
2023/06/12 14:33:31;;;;;;;7.32;3.30;;;28.10;58.20;;;;;;4743985;30;19949;-86
2023/06/12 14:35:57;;;;;;;4.50;3.17;;;28.00;59.00;;;;;;4765738;30;20044;-87
2023/06/12 14:38:23;;;;;;;3.77;3.03;;;28.00;59.30;;;;;;4747479;30;20036;-87
2023/06/12 14:40:49;;;;;;;7.40;3.30;;;28.00;59.70;;;;;;4741533;30;20117;-87
2023/06/12 14:43:15;;;;;;;4.67;3.03;;;28.00;59.90;;;;;;4745398;30;20504;-88
2023/06/12 14:45:41;;;;;;;5.32;3.20;;;28.10;59.70;;;;;;4740069;30;20058;-88
2023/06/12 14:48:06;;;;;;;3.67;3.33;;;28.20;59.00;;;;;;4743163;30;20040;-88
2023/06/12 14:50:35;;;;;;;4.13;2.97;;;28.10;58.50;;;;;;4747463;30;20031;-87
2023/06/12 14:53:03;;;;;;;3.90;3.05;;;28.10;58.40;;;;;;4774044;29;20065;-89
2023/06/12 14:55:29;;;;;;;3.70;3.37;;;28.10;58.90;;;;;;4733105;30;20031;-87
2023/06/12 14:57:54;;;;;;;5.27;2.90;;;28.20;57.70;;;;;;4768204;29;20552;-87
2023/06/12 15:00:20;;;;;;;3.80;3.10;;;28.20;58.80;;;;;;4736524;30;20467;-89
2023/06/12 15:02:46;;;;;;;5.15;3.22;;;28.20;59.40;;;;;;4720782;30;20059;-87
2023/06/12 15:05:12;;;;;;;4.97;3.00;;;28.20;58.80;;;;;;4735214;30;20047;-88
2023/06/12 15:07:37;;;;;;;5.07;3.20;;;28.10;58.20;;;;;;4747506;30;20399;-88
2023/06/12 15:10:05;;;;;;;6.13;3.33;;;28.10;58.70;;;;;;4733064;30;20052;-88
2023/06/12 15:12:31;;;;;;;4.40;3.00;;;28.00;58.90;;;;;;4724261;30;20040;-88
2023/06/12 15:14:56;;;;;;;3.83;3.20;;;27.90;58.70;;;;;;4750161;30;20077;-86
2023/06/12 15:17:22;;;;;;;4.93;2.83;;;27.70;59.20;;;;;;4747680;30;20055;-89
2023/06/12 15:19:52;;;;;;;2.87;2.63;;;27.60;59.30;;;;;;4736456;30;20454;-89
2023/06/12 15:22:18;;;;;;;4.65;2.75;;;27.60;59.50;;;;;;4757444;30;20123;-89
2023/06/12 15:24:44;;;;;;;6.18;3.20;;;27.60;59.30;;;;;;4757183;30;20052;-90
2023/06/12 15:27:16;;;;;;;3.47;2.80;;;27.60;59.30;;;;;;4759412;30;20613;-90
2023/06/12 15:29:54;;;;;;;4.72;3.13;;;27.70;59.50;;;;;;4742261;30;20040;-87
2023/06/12 15:32:19;;;;;;;4.53;3.35;;;27.70;60.10;;;;;;4748290;30;20043;-91
2023/06/12 15:34:45;;;;;;;4.00;3.20;;;27.70;58.50;;;;;;4734254;30;20043;-90
2023/06/12 15:37:15;;;;;;;3.47;3.00;;;27.70;59.20;;;;;;4726859;30;20055;-88
2023/06/12 15:39:45;;;;;;;7.95;2.97;;;27.80;59.30;;;;;;4742938;30;20048;-89
2023/06/12 15:42:11;;;;;;;5.53;3.22;;;27.80;59.20;;;;;;4759055;30;20052;-92
2023/06/12 15:44:37;;;;;;;3.13;2.80;;;27.80;59.80;;;;;;4742793;30;20064;-89
2023/06/12 15:47:03;;;;;;;3.30;3.00;;;27.70;59.20;;;;;;4741613;30;20086;-88
2023/06/12 15:49:28;;;;;;;4.13;3.03;;;27.60;58.90;;;;;;4750499;30;20531;-92
2023/06/12 15:51:54;;;;;;;3.77;3.00;;;27.50;57.90;;;;;;4737793;30;20079;-86
2023/06/12 15:54:20;;;;;;;4.50;2.70;;;;;;;;;;4736348;30;20044;-85
2023/06/12 15:56:46;;;;;;;4.72;2.67;;;27.30;59.30;;;;;;4742143;30;20052;-86
2023/06/12 15:59:12;;;;;;;4.40;2.90;;;27.30;59.40;;;;;;4726629;30;20048;-85
2023/06/12 16:01:38;;;;;;;4.27;3.10;;;27.20;59.00;;;;;;4778895;30;20097;-86
2023/06/12 16:04:09;;;;;;;2.80;2.50;;;27.30;59.40;;;;;;4743108;30;20051;-85
2023/06/12 16:06:36;;;;;;;4.65;2.90;;;27.30;59.90;;;;;;4768819;30;20139;-86
2023/06/12 16:09:02;;;;;;;5.72;3.28;;;27.20;59.50;;;;;;4759514;30;20044;-85
2023/06/12 16:11:28;;;;;;;3.60;2.67;;;27.20;59.70;;;;;;4739387;30;20047;-85
2023/06/12 16:13:53;;;;;;;3.37;2.87;;;27.20;59.70;;;;;;4742850;30;20051;-85
2023/06/12 16:16:19;;;;;;;5.50;2.83;;;27.10;60.00;;;;;;4767748;30;20043;-86
2023/06/12 16:18:45;;;;;;;6.93;2.93;;;27.00;60.10;;;;;;4742438;30;20048;-85
2023/06/12 16:21:10;;;;;;;3.47;2.90;;;26.90;60.10;;;;;;4737272;29;20504;-92
2023/06/12 16:23:36;;;;;;;3.57;2.90;;;26.80;60.00;;;;;;4744969;30;20103;-92
2023/06/12 16:26:02;;;;;;;7.60;3.00;;;26.70;60.20;;;;;;4741595;30;20047;-92
2023/06/12 16:28:31;;;;;;;5.57;3.05;;;26.60;60.50;;;;;;4741318;30;20060;-83
2023/06/12 16:30:58;;;;;;;4.00;2.70;;;26.60;60.20;;;;;;4755909;30;20050;-84
2023/06/12 16:33:23;;;;;;;3.40;2.70;;;26.50;60.40;;;;;;4714113;30;20664;-85